sensor_id;sensor_type;location;lat;lon;timestamp;temperature;humidity
5705;DHT22;2877;48.238;11.160;2022-11-20T00:01:41;5.00;99.90
5705;DHT22;2877;48.238;11.160;2022-11-20T00:04:07;5.00;99.90
5705;DHT22;2877;48.238;11.160;2022-11-20T00:06:33;5.00;99.90
5705;DHT22;2877;48.238;11.160;2022-11-20T00:08:59;4.90;99.90
5705;DHT22;2877;48.238;11.160;2022-11-20T00:11:27;5.00;99.90
5705;DHT22;2877;48.238;11.160;2022-11-20T00:13:56;4.90;99.90
5705;DHT22;2877;48.238;11.160;2022-11-20T00:16:24;5.00;99.90
5705;DHT22;2877;48.238;11.160;2022-11-20T00:18:50;5.00;99.90
5705;DHT22;2877;48.238;11.160;2022-11-20T00:21:25;5.00;99.90
5705;DHT22;2877;48.238;11.160;2022-11-20T00:23:52;5.00;99.90
5705;DHT22;2877;48.238;11.160;2022-11-20T00:26:19;5.00;99.90
5705;DHT22;2877;48.238;11.160;2022-11-20T00:28:50;5.00;99.90
5705;DHT22;2877;48.238;11.160;2022-11-20T00:31:17;5.00;99.90
5705;DHT22;2877;48.238;11.160;2022-11-20T00:33:43;5.00;99.90
5705;DHT22;2877;48.238;11.160;2022-11-20T00:36:20;5.00;99.90
5705;DHT22;2877;48.238;11.160;2022-11-20T00:38:46;5.00;99.90
5705;DHT22;2877;48.238;11.160;2022-11-20T00:41:14;4.90;99.90
5705;DHT22;2877;48.238;11.160;2022-11-20T00:43:40;4.90;99.90
5705;DHT22;2877;48.238;11.160;2022-11-20T00:46:14;4.90;99.90
5705;DHT22;2877;48.238;11.160;2022-11-20T00:48:40;5.00;99.90
5705;DHT22;2877;48.238;11.160;2022-11-20T00:51:06;4.90;99.90
5705;DHT22;2877;48.238;11.160;2022-11-20T00:53:32;4.90;99.90
5705;DHT22;2877;48.238;11.160;2022-11-20T00:55:59;4.90;99.90
5705;DHT22;2877;48.238;11.160;2022-11-20T00:58:29;4.90;99.90
5705;DHT22;2877;48.238;11.160;2022-11-20T01:01:08;4.90;99.90
5705;DHT22;2877;48.238;11.160;2022-11-20T01:03:35;4.90;99.90
5705;DHT22;2877;48.238;11.160;2022-11-20T01:06:03;4.90;99.90
5705;DHT22;2877;48.238;11.160;2022-11-20T01:08:33;4.90;99.90
5705;DHT22;2877;48.238;11.160;2022-11-20T01:11:05;4.90;99.90
5705;DHT22;2877;48.238;11.160;2022-11-20T01:13:31;4.90;99.90
5705;DHT22;2877;48.238;11.160;2022-11-20T01:18:32;4.90;99.90
5705;DHT22;2877;48.238;11.160;2022-11-20T01:21:14;4.80;99.90
5705;DHT22;2877;48.238;11.160;2022-11-20T01:23:41;4.80;99.90
5705;DHT22;2877;48.238;11.160;2022-11-20T01:26:10;4.80;99.90
5705;DHT22;2877;48.238;11.160;2022-11-20T01:28:36;4.80;99.90
5705;DHT22;2877;48.238;11.160;2022-11-20T01:31:10;4.70;99.90
5705;DHT22;2877;48.238;11.160;2022-11-20T01:33:37;4.70;99.90
5705;DHT22;2877;48.238;11.160;2022-11-20T01:36:04;4.70;99.90
5705;DHT22;2877;48.238;11.160;2022-11-20T01:38:30;4.70;99.90
5705;DHT22;2877;48.238;11.160;2022-11-20T01:40:56;4.70;99.90
5705;DHT22;2877;48.238;11.160;2022-11-20T01:43:22;4.70;99.90
5705;DHT22;2877;48.238;11.160;2022-11-20T01:46:14;4.70;99.90
5705;DHT22;2877;48.238;11.160;2022-11-20T01:49:08;4.70;99.90
5705;DHT22;2877;48.238;11.160;2022-11-20T01:51:45;4.70;99.90
5705;DHT22;2877;48.238;11.160;2022-11-20T01:54:17;4.70;99.90
5705;DHT22;2877;48.238;11.160;2022-11-20T01:56:45;4.70;99.90
5705;DHT22;2877;48.238;11.160;2022-11-20T01:59:14;4.70;99.90
5705;DHT22;2877;48.238;11.160;2022-11-20T02:01:41;4.70;99.90
5705;DHT22;2877;48.238;11.160;2022-11-20T02:04:07;4.70;99.90
5705;DHT22;2877;48.238;11.160;2022-11-20T02:07:02;4.80;99.90
5705;DHT22;2877;48.238;11.160;2022-11-20T02:09:27;4.80;99.90
5705;DHT22;2877;48.238;11.160;2022-11-20T02:11:53;4.90;99.90
5705;DHT22;2877;48.238;11.160;2022-11-20T02:14:20;4.90;99.90
5705;DHT22;2877;48.238;11.160;2022-11-20T02:16:47;4.90;99.90
5705;DHT22;2877;48.238;11.160;2022-11-20T02:19:23;4.90;99.90
5705;DHT22;2877;48.238;11.160;2022-11-20T02:22:00;4.90;99.90
5705;DHT22;2877;48.238;11.160;2022-11-20T02:24:27;4.90;99.90
5705;DHT22;2877;48.238;11.160;2022-11-20T02:27:09;4.90;99.90
5705;DHT22;2877;48.238;11.160;2022-11-20T02:29:51;4.90;99.90
5705;DHT22;2877;48.238;11.160;2022-11-20T02:32:23;4.90;99.90
5705;DHT22;2877;48.238;11.160;2022-11-20T02:34:49;4.90;99.90
5705;DHT22;2877;48.238;11.160;2022-11-20T02:37:15;4.90;99.90
5705;DHT22;2877;48.238;11.160;2022-11-20T02:39:43;4.90;99.90
5705;DHT22;2877;48.238;11.160;2022-11-20T02:42:09;4.90;99.90
5705;DHT22;2877;48.238;11.160;2022-11-20T02:44:35;4.80;99.90
5705;DHT22;2877;48.238;11.160;2022-11-20T02:47:00;4.80;99.90
5705;DHT22;2877;48.238;11.160;2022-11-20T02:49:26;4.70;99.90
5705;DHT22;2877;48.238;11.160;2022-11-20T02:51:51;4.80;99.90
5705;DHT22;2877;48.238;11.160;2022-11-20T02:54:17;4.80;99.90
5705;DHT22;2877;48.238;11.160;2022-11-20T02:56:43;4.80;99.90
5705;DHT22;2877;48.238;11.160;2022-11-20T02:59:09;4.70;99.90
5705;DHT22;2877;48.238;11.160;2022-11-20T03:01:35;4.70;99.90
5705;DHT22;2877;48.238;11.160;2022-11-20T03:04:01;4.80;99.90
5705;DHT22;2877;48.238;11.160;2022-11-20T03:06:26;4.80;99.90
5705;DHT22;2877;48.238;11.160;2022-11-20T03:08:52;4.80;99.90
5705;DHT22;2877;48.238;11.160;2022-11-20T03:11:17;4.80;99.90
5705;DHT22;2877;48.238;11.160;2022-11-20T03:13:43;4.70;99.90
5705;DHT22;2877;48.238;11.160;2022-11-20T03:16:14;4.70;99.90
5705;DHT22;2877;48.238;11.160;2022-11-20T03:18:41;4.70;99.90
5705;DHT22;2877;48.238;11.160;2022-11-20T03:21:07;4.70;99.90
5705;DHT22;2877;48.238;11.160;2022-11-20T03:23:33;4.70;99.90
5705;DHT22;2877;48.238;11.160;2022-11-20T03:26:15;4.70;99.90
5705;DHT22;2877;48.238;11.160;2022-11-20T03:28:46;4.70;99.90
5705;DHT22;2877;48.238;11.160;2022-11-20T03:31:14;4.70;99.90
5705;DHT22;2877;48.238;11.160;2022-11-20T03:33:41;4.70;99.90
5705;DHT22;2877;48.238;11.160;2022-11-20T03:36:15;4.70;99.90
5705;DHT22;2877;48.238;11.160;2022-11-20T03:38:40;4.70;99.90
5705;DHT22;2877;48.238;11.160;2022-11-20T03:41:11;4.70;99.90
5705;DHT22;2877;48.238;11.160;2022-11-20T03:43:38;4.70;99.90
5705;DHT22;2877;48.238;11.160;2022-11-20T03:46:04;4.70;99.90
5705;DHT22;2877;48.238;11.160;2022-11-20T03:48:30;4.70;99.90
5705;DHT22;2877;48.238;11.160;2022-11-20T03:51:13;4.70;99.90
5705;DHT22;2877;48.238;11.160;2022-11-20T03:53:40;4.70;99.90
5705;DHT22;2877;48.238;11.160;2022-11-20T03:56:06;4.70;99.90
5705;DHT22;2877;48.238;11.160;2022-11-20T03:58:33;4.70;99.90
5705;DHT22;2877;48.238;11.160;2022-11-20T04:01:11;4.70;99.90
5705;DHT22;2877;48.238;11.160;2022-11-20T04:03:38;4.70;99.90
5705;DHT22;2877;48.238;11.160;2022-11-20T04:06:09;4.80;99.90
5705;DHT22;2877;48.238;11.160;2022-11-20T04:08:35;4.70;99.90
5705;DHT22;2877;48.238;11.160;2022-11-20T04:11:15;4.80;99.90
5705;DHT22;2877;48.238;11.160;2022-11-20T04:13:41;4.80;99.90
5705;DHT22;2877;48.238;11.160;2022-11-20T04:16:09;4.70;99.90
5705;DHT22;2877;48.238;11.160;2022-11-20T04:18:35;4.70;99.90
5705;DHT22;2877;48.238;11.160;2022-11-20T04:21:02;4.70;99.90
5705;DHT22;2877;48.238;11.160;2022-11-20T04:23:28;4.80;99.90
5705;DHT22;2877;48.238;11.160;2022-11-20T04:25:53;4.70;99.90
5705;DHT22;2877;48.238;11.160;2022-11-20T04:28:19;4.80;99.90
5705;DHT22;2877;48.238;11.160;2022-11-20T04:30:45;4.80;99.90
5705;DHT22;2877;48.238;11.160;2022-11-20T04:33:11;4.70;99.90
5705;DHT22;2877;48.238;11.160;2022-11-20T04:35:37;4.80;99.90
5705;DHT22;2877;48.238;11.160;2022-11-20T04:38:03;4.70;99.90
5705;DHT22;2877;48.238;11.160;2022-11-20T04:40:29;4.70;99.90
5705;DHT22;2877;48.238;11.160;2022-11-20T04:42:55;4.70;99.90
5705;DHT22;2877;48.238;11.160;2022-11-20T04:45:21;4.70;99.90
5705;DHT22;2877;48.238;11.160;2022-11-20T04:47:47;4.80;99.90
5705;DHT22;2877;48.238;11.160;2022-11-20T04:50:12;4.80;99.90
5705;DHT22;2877;48.238;11.160;2022-11-20T04:52:38;4.80;99.90
5705;DHT22;2877;48.238;11.160;2022-11-20T04:55:04;4.80;99.90
5705;DHT22;2877;48.238;11.160;2022-11-20T04:57:30;4.80;99.90
5705;DHT22;2877;48.238;11.160;2022-11-20T04:59:55;4.80;99.90
5705;DHT22;2877;48.238;11.160;2022-11-20T05:02:21;4.80;99.90
5705;DHT22;2877;48.238;11.160;2022-11-20T05:04:46;4.80;99.90
5705;DHT22;2877;48.238;11.160;2022-11-20T05:07:12;4.80;99.90
5705;DHT22;2877;48.238;11.160;2022-11-20T05:09:37;4.80;99.90
5705;DHT22;2877;48.238;11.160;2022-11-20T05:12:03;4.80;99.90
5705;DHT22;2877;48.238;11.160;2022-11-20T05:14:29;4.80;99.90
5705;DHT22;2877;48.238;11.160;2022-11-20T05:16:54;4.80;99.90
5705;DHT22;2877;48.238;11.160;2022-11-20T05:19:20;4.80;99.90
5705;DHT22;2877;48.238;11.160;2022-11-20T05:21:45;4.80;99.90
5705;DHT22;2877;48.238;11.160;2022-11-20T05:24:11;4.70;99.90
5705;DHT22;2877;48.238;11.160;2022-11-20T05:26:37;4.70;99.90
5705;DHT22;2877;48.238;11.160;2022-11-20T05:29:02;4.60;99.90
5705;DHT22;2877;48.238;11.160;2022-11-20T05:31:28;4.60;99.90
5705;DHT22;2877;48.238;11.160;2022-11-20T05:33:55;4.50;99.90
5705;DHT22;2877;48.238;11.160;2022-11-20T05:36:21;4.40;99.90
5705;DHT22;2877;48.238;11.160;2022-11-20T05:38:46;4.40;99.90
5705;DHT22;2877;48.238;11.160;2022-11-20T05:41:14;4.30;99.90
5705;DHT22;2877;48.238;11.160;2022-11-20T05:43:41;4.30;99.90
5705;DHT22;2877;48.238;11.160;2022-11-20T05:46:08;4.20;99.90
5705;DHT22;2877;48.238;11.160;2022-11-20T05:48:35;4.20;99.90
5705;DHT22;2877;48.238;11.160;2022-11-20T05:51:02;4.10;99.90
5705;DHT22;2877;48.238;11.160;2022-11-20T05:53:28;4.10;99.90
5705;DHT22;2877;48.238;11.160;2022-11-20T05:56:02;4.20;99.90
5705;DHT22;2877;48.238;11.160;2022-11-20T05:58:28;4.20;99.90
5705;DHT22;2877;48.238;11.160;2022-11-20T06:00:54;4.20;99.90
5705;DHT22;2877;48.238;11.160;2022-11-20T06:03:27;4.30;99.90
5705;DHT22;2877;48.238;11.160;2022-11-20T06:05:53;4.30;99.90
5705;DHT22;2877;48.238;11.160;2022-11-20T06:08:18;4.30;99.90
5705;DHT22;2877;48.238;11.160;2022-11-20T06:10:44;4.30;99.90
5705;DHT22;2877;48.238;11.160;2022-11-20T06:13:09;4.40;99.90
5705;DHT22;2877;48.238;11.160;2022-11-20T06:15:35;4.40;99.90
5705;DHT22;2877;48.238;11.160;2022-11-20T06:18:00;4.40;99.90
5705;DHT22;2877;48.238;11.160;2022-11-20T06:20:26;4.40;99.90
5705;DHT22;2877;48.238;11.160;2022-11-20T06:22:52;4.40;99.90
5705;DHT22;2877;48.238;11.160;2022-11-20T06:25:17;4.40;99.90
5705;DHT22;2877;48.238;11.160;2022-11-20T06:27:43;4.40;99.90
5705;DHT22;2877;48.238;11.160;2022-11-20T06:30:09;4.40;99.90
5705;DHT22;2877;48.238;11.160;2022-11-20T06:32:34;4.50;99.90
5705;DHT22;2877;48.238;11.160;2022-11-20T06:35:00;4.50;99.90
5705;DHT22;2877;48.238;11.160;2022-11-20T06:37:25;4.50;99.90
5705;DHT22;2877;48.238;11.160;2022-11-20T06:39:51;4.50;99.90
5705;DHT22;2877;48.238;11.160;2022-11-20T06:42:16;4.50;99.90
5705;DHT22;2877;48.238;11.160;2022-11-20T06:44:42;4.50;99.90
5705;DHT22;2877;48.238;11.160;2022-11-20T06:47:08;4.50;99.90
5705;DHT22;2877;48.238;11.160;2022-11-20T06:49:33;4.60;99.90
5705;DHT22;2877;48.238;11.160;2022-11-20T06:51:59;4.60;99.90
5705;DHT22;2877;48.238;11.160;2022-11-20T06:54:25;4.70;99.90
5705;DHT22;2877;48.238;11.160;2022-11-20T06:56:50;4.70;99.90
5705;DHT22;2877;48.238;11.160;2022-11-20T06:59:16;4.70;99.90
5705;DHT22;2877;48.238;11.160;2022-11-20T07:01:41;4.70;99.90
5705;DHT22;2877;48.238;11.160;2022-11-20T07:04:07;4.70;99.90
5705;DHT22;2877;48.238;11.160;2022-11-20T07:06:33;4.70;99.90
5705;DHT22;2877;48.238;11.160;2022-11-20T07:08:58;4.70;99.90
5705;DHT22;2877;48.238;11.160;2022-11-20T07:11:24;4.80;99.90
5705;DHT22;2877;48.238;11.160;2022-11-20T07:13:49;4.80;99.90
5705;DHT22;2877;48.238;11.160;2022-11-20T07:16:16;4.80;99.90
5705;DHT22;2877;48.238;11.160;2022-11-20T07:18:41;4.80;99.90
5705;DHT22;2877;48.238;11.160;2022-11-20T07:21:08;4.80;99.90
5705;DHT22;2877;48.238;11.160;2022-11-20T07:23:35;4.90;99.90
5705;DHT22;2877;48.238;11.160;2022-11-20T07:26:05;4.90;99.90
5705;DHT22;2877;48.238;11.160;2022-11-20T07:28:32;4.90;99.90
5705;DHT22;2877;48.238;11.160;2022-11-20T07:30:58;4.90;99.90
5705;DHT22;2877;48.238;11.160;2022-11-20T07:33:23;5.00;99.90
5705;DHT22;2877;48.238;11.160;2022-11-20T07:35:49;5.00;99.90
5705;DHT22;2877;48.238;11.160;2022-11-20T07:38:14;5.00;99.90
5705;DHT22;2877;48.238;11.160;2022-11-20T07:40:40;5.00;99.90
5705;DHT22;2877;48.238;11.160;2022-11-20T07:43:06;5.10;99.90
5705;DHT22;2877;48.238;11.160;2022-11-20T07:45:31;5.10;99.90
5705;DHT22;2877;48.238;11.160;2022-11-20T07:47:57;5.20;99.90
5705;DHT22;2877;48.238;11.160;2022-11-20T07:50:22;5.20;99.90
5705;DHT22;2877;48.238;11.160;2022-11-20T07:52:48;5.20;99.90
5705;DHT22;2877;48.238;11.160;2022-11-20T07:55:14;5.20;99.90
5705;DHT22;2877;48.238;11.160;2022-11-20T07:57:40;5.20;99.90
5705;DHT22;2877;48.238;11.160;2022-11-20T08:00:08;5.30;99.90
5705;DHT22;2877;48.238;11.160;2022-11-20T08:02:40;5.30;99.90
5705;DHT22;2877;48.238;11.160;2022-11-20T08:05:08;5.30;99.90
5705;DHT22;2877;48.238;11.160;2022-11-20T08:07:40;5.40;99.90
5705;DHT22;2877;48.238;11.160;2022-11-20T08:10:08;5.50;99.90
5705;DHT22;2877;48.238;11.160;2022-11-20T08:12:34;5.50;99.90
5705;DHT22;2877;48.238;11.160;2022-11-20T08:15:18;5.60;99.90
5705;DHT22;2877;48.238;11.160;2022-11-20T08:17:43;5.60;99.90
5705;DHT22;2877;48.238;11.160;2022-11-20T08:20:09;5.60;99.90
5705;DHT22;2877;48.238;11.160;2022-11-20T08:22:35;5.60;99.90
5705;DHT22;2877;48.238;11.160;2022-11-20T08:25:00;5.60;99.90
5705;DHT22;2877;48.238;11.160;2022-11-20T08:27:26;5.70;99.90
5705;DHT22;2877;48.238;11.160;2022-11-20T08:29:52;5.70;99.90
5705;DHT22;2877;48.238;11.160;2022-11-20T08:32:17;5.70;99.90
5705;DHT22;2877;48.238;11.160;2022-11-20T08:34:43;5.70;99.90
5705;DHT22;2877;48.238;11.160;2022-11-20T08:37:08;5.70;99.90
5705;DHT22;2877;48.238;11.160;2022-11-20T08:39:34;5.70;99.90
5705;DHT22;2877;48.238;11.160;2022-11-20T08:42:00;5.80;99.90
5705;DHT22;2877;48.238;11.160;2022-11-20T08:44:25;5.90;99.90
5705;DHT22;2877;48.238;11.160;2022-11-20T08:46:51;5.90;99.90
5705;DHT22;2877;48.238;11.160;2022-11-20T08:49:16;6.00;99.90
5705;DHT22;2877;48.238;11.160;2022-11-20T08:51:43;6.10;99.90
5705;DHT22;2877;48.238;11.160;2022-11-20T08:54:09;6.10;99.90
5705;DHT22;2877;48.238;11.160;2022-11-20T08:56:35;6.10;99.90
5705;DHT22;2877;48.238;11.160;2022-11-20T08:59:00;6.20;99.90
5705;DHT22;2877;48.238;11.160;2022-11-20T09:01:27;6.30;99.90
5705;DHT22;2877;48.238;11.160;2022-11-20T09:03:55;6.40;99.90
5705;DHT22;2877;48.238;11.160;2022-11-20T09:06:21;6.50;99.90
5705;DHT22;2877;48.238;11.160;2022-11-20T09:08:46;6.50;99.90
5705;DHT22;2877;48.238;11.160;2022-11-20T09:11:12;6.60;99.90
5705;DHT22;2877;48.238;11.160;2022-11-20T09:13:37;6.60;99.90
5705;DHT22;2877;48.238;11.160;2022-11-20T09:16:06;6.50;99.90
5705;DHT22;2877;48.238;11.160;2022-11-20T09:18:32;6.50;99.90
5705;DHT22;2877;48.238;11.160;2022-11-20T09:21:00;6.60;99.90
5705;DHT22;2877;48.238;11.160;2022-11-20T09:23:26;6.80;99.90
5705;DHT22;2877;48.238;11.160;2022-11-20T09:25:52;7.00;99.90
5705;DHT22;2877;48.238;11.160;2022-11-20T09:28:20;7.10;99.90
5705;DHT22;2877;48.238;11.160;2022-11-20T09:30:46;7.20;99.90
5705;DHT22;2877;48.238;11.160;2022-11-20T09:33:12;7.20;99.90
5705;DHT22;2877;48.238;11.160;2022-11-20T09:35:38;7.10;99.90
5705;DHT22;2877;48.238;11.160;2022-11-20T09:38:06;7.10;99.90
5705;DHT22;2877;48.238;11.160;2022-11-20T09:40:32;7.10;99.90
5705;DHT22;2877;48.238;11.160;2022-11-20T09:46:06;7.10;99.90
5705;DHT22;2877;48.238;11.160;2022-11-20T09:51:28;7.00;99.90
5705;DHT22;2877;48.238;11.160;2022-11-20T09:54:25;6.90;99.90
5705;DHT22;2877;48.238;11.160;2022-11-20T09:56:56;7.00;99.90
5705;DHT22;2877;48.238;11.160;2022-11-20T09:59:35;6.90;99.90
5705;DHT22;2877;48.238;11.160;2022-11-20T10:04:48;6.80;99.90
5705;DHT22;2877;48.238;11.160;2022-11-20T10:07:23;6.80;99.90
5705;DHT22;2877;48.238;11.160;2022-11-20T10:09:54;6.80;99.90
5705;DHT22;2877;48.238;11.160;2022-11-20T10:13:09;6.90;99.90
5705;DHT22;2877;48.238;11.160;2022-11-20T10:18:09;7.10;99.90
5705;DHT22;2877;48.238;11.160;2022-11-20T10:23:59;7.20;99.90
5705;DHT22;2877;48.238;11.160;2022-11-20T10:26:59;7.00;99.90
5705;DHT22;2877;48.238;11.160;2022-11-20T10:29:32;6.90;99.90
5705;DHT22;2877;48.238;11.160;2022-11-20T10:32:04;6.90;99.90
5705;DHT22;2877;48.238;11.160;2022-11-20T10:34:54;7.10;99.90
5705;DHT22;2877;48.238;11.160;2022-11-20T10:37:25;7.20;99.90
5705;DHT22;2877;48.238;11.160;2022-11-20T10:40:01;7.20;99.90
5705;DHT22;2877;48.238;11.160;2022-11-20T10:43:01;7.30;99.90
5705;DHT22;2877;48.238;11.160;2022-11-20T10:48:22;7.00;99.90
5705;DHT22;2877;48.238;11.160;2022-11-20T10:53:47;6.90;99.90
5705;DHT22;2877;48.238;11.160;2022-11-20T10:56:22;6.90;99.90
5705;DHT22;2877;48.238;11.160;2022-11-20T11:01:30;6.80;99.90
5705;DHT22;2877;48.238;11.160;2022-11-20T11:03:57;6.80;99.90
5705;DHT22;2877;48.238;11.160;2022-11-20T11:09:01;6.90;99.90
5705;DHT22;2877;48.238;11.160;2022-11-20T11:11:31;7.00;99.90
5705;DHT22;2877;48.238;11.160;2022-11-20T11:16:33;7.10;99.90
5705;DHT22;2877;48.238;11.160;2022-11-20T11:19:10;7.10;99.90
5705;DHT22;2877;48.238;11.160;2022-11-20T11:21:37;7.20;99.90
5705;DHT22;2877;48.238;11.160;2022-11-20T11:24:20;7.20;99.90
5705;DHT22;2877;48.238;11.160;2022-11-20T11:26:59;7.20;99.90
5705;DHT22;2877;48.238;11.160;2022-11-20T11:29:30;7.10;99.90
5705;DHT22;2877;48.238;11.160;2022-11-20T11:32:11;7.10;99.90
5705;DHT22;2877;48.238;11.160;2022-11-20T11:34:36;6.90;99.90
5705;DHT22;2877;48.238;11.160;2022-11-20T11:37:02;6.80;99.90
5705;DHT22;2877;48.238;11.160;2022-11-20T11:39:30;6.60;99.90
5705;DHT22;2877;48.238;11.160;2022-11-20T11:41:57;6.50;99.90
5705;DHT22;2877;48.238;11.160;2022-11-20T11:44:32;6.40;99.90
5705;DHT22;2877;48.238;11.160;2022-11-20T11:47:24;6.50;99.90
5705;DHT22;2877;48.238;11.160;2022-11-20T11:50:22;6.70;99.90
5705;DHT22;2877;48.238;11.160;2022-11-20T11:58:20;7.00;99.90
5705;DHT22;2877;48.238;11.160;2022-11-20T12:01:12;7.10;99.90
5705;DHT22;2877;48.238;11.160;2022-11-20T12:03:40;7.10;99.90
5705;DHT22;2877;48.238;11.160;2022-11-20T12:06:13;7.10;99.90
5705;DHT22;2877;48.238;11.160;2022-11-20T12:08:50;6.90;99.90
5705;DHT22;2877;48.238;11.160;2022-11-20T12:16:45;7.00;99.90
5705;DHT22;2877;48.238;11.160;2022-11-20T12:19:12;7.00;99.90
5705;DHT22;2877;48.238;11.160;2022-11-20T12:24:36;7.00;99.90
5705;DHT22;2877;48.238;11.160;2022-11-20T12:29:53;7.00;99.90
5705;DHT22;2877;48.238;11.160;2022-11-20T12:32:52;7.00;99.90
5705;DHT22;2877;48.238;11.160;2022-11-20T12:35:55;6.90;99.90
5705;DHT22;2877;48.238;11.160;2022-11-20T12:38:40;7.00;99.90
5705;DHT22;2877;48.238;11.160;2022-11-20T12:44:36;6.80;99.90
5705;DHT22;2877;48.238;11.160;2022-11-20T12:53:04;6.40;99.90
5705;DHT22;2877;48.238;11.160;2022-11-20T13:01:34;6.50;99.90
5705;DHT22;2877;48.238;11.160;2022-11-20T13:06:56;6.50;99.90
5705;DHT22;2877;48.238;11.160;2022-11-20T13:09:23;6.40;99.90
5705;DHT22;2877;48.238;11.160;2022-11-20T13:12:03;6.30;99.90
5705;DHT22;2877;48.238;11.160;2022-11-20T13:15:02;6.30;99.90
5705;DHT22;2877;48.238;11.160;2022-11-20T13:20:15;6.20;99.90
5705;DHT22;2877;48.238;11.160;2022-11-20T13:22:49;6.20;99.90
5705;DHT22;2877;48.238;11.160;2022-11-20T13:25:34;6.20;99.90
5705;DHT22;2877;48.238;11.160;2022-11-20T13:30:36;6.20;99.90
5705;DHT22;2877;48.238;11.160;2022-11-20T13:33:07;6.10;99.90
5705;DHT22;2877;48.238;11.160;2022-11-20T13:35:36;6.20;99.90
5705;DHT22;2877;48.238;11.160;2022-11-20T13:38:13;6.20;99.90
5705;DHT22;2877;48.238;11.160;2022-11-20T13:41:00;6.20;99.90
5705;DHT22;2877;48.238;11.160;2022-11-20T13:43:47;6.20;99.90
5705;DHT22;2877;48.238;11.160;2022-11-20T13:46:13;6.20;99.90
5705;DHT22;2877;48.238;11.160;2022-11-20T13:48:43;6.20;99.90
5705;DHT22;2877;48.238;11.160;2022-11-20T13:59:51;6.30;99.90
5705;DHT22;2877;48.238;11.160;2022-11-20T14:02:20;6.30;99.90
5705;DHT22;2877;48.238;11.160;2022-11-20T14:04:49;6.30;99.90
5705;DHT22;2877;48.238;11.160;2022-11-20T14:07:18;6.30;99.90
5705;DHT22;2877;48.238;11.160;2022-11-20T14:09:55;6.30;99.90
5705;DHT22;2877;48.238;11.160;2022-11-20T14:12:32;6.30;99.90
5705;DHT22;2877;48.238;11.160;2022-11-20T14:14:58;6.30;99.90
5705;DHT22;2877;48.238;11.160;2022-11-20T14:17:34;6.30;99.90
5705;DHT22;2877;48.238;11.160;2022-11-20T14:20:06;6.40;99.90
5705;DHT22;2877;48.238;11.160;2022-11-20T14:22:32;6.40;99.90
5705;DHT22;2877;48.238;11.160;2022-11-20T14:27:39;6.40;99.90
5705;DHT22;2877;48.238;11.160;2022-11-20T14:30:11;6.30;99.90
5705;DHT22;2877;48.238;11.160;2022-11-20T14:32:38;6.30;99.90
5705;DHT22;2877;48.238;11.160;2022-11-20T14:35:08;6.30;99.90
5705;DHT22;2877;48.238;11.160;2022-11-20T14:37:37;6.30;99.90
5705;DHT22;2877;48.238;11.160;2022-11-20T14:40:51;6.30;99.90
5705;DHT22;2877;48.238;11.160;2022-11-20T14:42:51;6.20;99.90
5705;DHT22;2877;48.238;11.160;2022-11-20T14:45:17;6.10;99.90
5705;DHT22;2877;48.238;11.160;2022-11-20T14:47:43;5.90;99.90
5705;DHT22;2877;48.238;11.160;2022-11-20T14:50:26;5.80;99.90
5705;DHT22;2877;48.238;11.160;2022-11-20T14:52:57;5.70;99.90
5705;DHT22;2877;48.238;11.160;2022-11-20T14:55:32;5.60;99.90
5705;DHT22;2877;48.238;11.160;2022-11-20T14:58:23;5.70;99.90
5705;DHT22;2877;48.238;11.160;2022-11-20T15:01:00;5.70;99.90
5705;DHT22;2877;48.238;11.160;2022-11-20T15:03:37;5.70;99.90
5705;DHT22;2877;48.238;11.160;2022-11-20T15:06:05;5.70;99.90
5705;DHT22;2877;48.238;11.160;2022-11-20T15:08:30;5.60;99.90
5705;DHT22;2877;48.238;11.160;2022-11-20T15:10:56;5.60;99.90
5705;DHT22;2877;48.238;11.160;2022-11-20T15:13:34;5.60;99.90
5705;DHT22;2877;48.238;11.160;2022-11-20T15:16:02;5.60;99.90
5705;DHT22;2877;48.238;11.160;2022-11-20T15:18:36;5.60;99.90
5705;DHT22;2877;48.238;11.160;2022-11-20T15:21:10;5.50;99.90
5705;DHT22;2877;48.238;11.160;2022-11-20T15:23:36;5.30;99.90
5705;DHT22;2877;48.238;11.160;2022-11-20T15:26:01;4.90;99.90
5705;DHT22;2877;48.238;11.160;2022-11-20T15:28:30;4.70;99.90
5705;DHT22;2877;48.238;11.160;2022-11-20T15:30:56;4.60;99.90
5705;DHT22;2877;48.238;11.160;2022-11-20T15:33:22;4.50;99.90
5705;DHT22;2877;48.238;11.160;2022-11-20T15:35:47;4.50;99.90
5705;DHT22;2877;48.238;11.160;2022-11-20T15:38:13;4.50;99.90
5705;DHT22;2877;48.238;11.160;2022-11-20T15:40:39;4.40;99.90
5705;DHT22;2877;48.238;11.160;2022-11-20T15:43:05;4.40;99.90
5705;DHT22;2877;48.238;11.160;2022-11-20T15:45:42;4.40;99.90
5705;DHT22;2877;48.238;11.160;2022-11-20T15:48:20;4.30;99.90
5705;DHT22;2877;48.238;11.160;2022-11-20T15:51:14;4.30;99.90
5705;DHT22;2877;48.238;11.160;2022-11-20T15:53:43;4.30;99.90
5705;DHT22;2877;48.238;11.160;2022-11-20T15:56:12;4.20;99.90
5705;DHT22;2877;48.238;11.160;2022-11-20T15:58:39;4.30;99.90
5705;DHT22;2877;48.238;11.160;2022-11-20T16:01:05;4.30;99.90
5705;DHT22;2877;48.238;11.160;2022-11-20T16:03:31;4.30;99.90
5705;DHT22;2877;48.238;11.160;2022-11-20T16:05:56;4.20;99.90
5705;DHT22;2877;48.238;11.160;2022-11-20T16:08:22;4.20;99.90
5705;DHT22;2877;48.238;11.160;2022-11-20T16:10:47;4.20;99.90
5705;DHT22;2877;48.238;11.160;2022-11-20T16:13:15;4.20;99.90
5705;DHT22;2877;48.238;11.160;2022-11-20T16:16:04;4.30;99.90
5705;DHT22;2877;48.238;11.160;2022-11-20T16:18:31;4.20;99.90
5705;DHT22;2877;48.238;11.160;2022-11-20T16:20:57;4.20;99.90
5705;DHT22;2877;48.238;11.160;2022-11-20T16:23:23;4.20;99.90
5705;DHT22;2877;48.238;11.160;2022-11-20T16:25:49;4.20;99.90
5705;DHT22;2877;48.238;11.160;2022-11-20T16:28:16;4.10;99.90
5705;DHT22;2877;48.238;11.160;2022-11-20T16:30:41;4.10;99.90
5705;DHT22;2877;48.238;11.160;2022-11-20T16:33:15;4.00;99.90
5705;DHT22;2877;48.238;11.160;2022-11-20T16:35:41;3.90;99.90
5705;DHT22;2877;48.238;11.160;2022-11-20T16:38:06;3.90;99.90
5705;DHT22;2877;48.238;11.160;2022-11-20T16:40:32;3.80;99.90
5705;DHT22;2877;48.238;11.160;2022-11-20T16:43:07;3.70;99.90
5705;DHT22;2877;48.238;11.160;2022-11-20T16:45:33;3.60;99.90
5705;DHT22;2877;48.238;11.160;2022-11-20T16:47:58;3.50;99.90
5705;DHT22;2877;48.238;11.160;2022-11-20T16:50:24;3.40;99.90
5705;DHT22;2877;48.238;11.160;2022-11-20T16:52:49;3.40;99.90
5705;DHT22;2877;48.238;11.160;2022-11-20T16:55:15;3.40;99.90
5705;DHT22;2877;48.238;11.160;2022-11-20T16:57:40;3.30;99.90
5705;DHT22;2877;48.238;11.160;2022-11-20T17:00:07;3.20;99.90
5705;DHT22;2877;48.238;11.160;2022-11-20T17:02:33;3.20;99.90
5705;DHT22;2877;48.238;11.160;2022-11-20T17:04:58;3.10;99.90
5705;DHT22;2877;48.238;11.160;2022-11-20T17:07:24;3.00;99.90
5705;DHT22;2877;48.238;11.160;2022-11-20T17:09:50;2.90;99.90
5705;DHT22;2877;48.238;11.160;2022-11-20T17:12:15;2.90;99.90
5705;DHT22;2877;48.238;11.160;2022-11-20T17:14:41;3.00;99.90
5705;DHT22;2877;48.238;11.160;2022-11-20T17:17:06;3.00;99.90
5705;DHT22;2877;48.238;11.160;2022-11-20T17:19:32;3.10;99.90
5705;DHT22;2877;48.238;11.160;2022-11-20T17:21:57;3.10;99.90
5705;DHT22;2877;48.238;11.160;2022-11-20T17:24:23;3.20;99.90
5705;DHT22;2877;48.238;11.160;2022-11-20T17:26:48;3.30;99.90
5705;DHT22;2877;48.238;11.160;2022-11-20T17:29:16;3.30;99.90
5705;DHT22;2877;48.238;11.160;2022-11-20T17:31:43;3.30;99.90
5705;DHT22;2877;48.238;11.160;2022-11-20T17:34:13;3.40;99.90
5705;DHT22;2877;48.238;11.160;2022-11-20T17:36:39;3.50;99.90
5705;DHT22;2877;48.238;11.160;2022-11-20T17:39:17;3.60;99.90